createdAt,value
2022-12-27T00:00:37.541Z,66.97
2022-12-27T00:03:05.515Z,67.51
2022-12-27T00:05:32.903Z,67.08
2022-12-27T00:08:00.484Z,67.15
2022-12-27T00:10:28.258Z,66.93
2022-12-27T00:12:55.840Z,66.65
2022-12-27T00:15:23.224Z,67.62
2022-12-27T00:17:51.143Z,67.48
2022-12-27T00:20:18.767Z,67.21
2022-12-27T00:22:49.124Z,67.08
2022-12-27T00:25:17.042Z,68.72
2022-12-27T00:27:44.445Z,68.58
2022-12-27T00:30:12.520Z,67.77
2022-12-27T00:32:40.311Z,67.67
2022-12-27T00:35:08.290Z,67.93
2022-12-27T00:37:35.690Z,67.63
2022-12-27T00:40:04.163Z,68.41
2022-12-27T00:42:31.565Z,68.91
2022-12-27T00:44:59.250Z,68.66
2022-12-27T00:47:26.901Z,68.93
2022-12-27T00:49:54.251Z,69.12
2022-12-27T00:52:22.097Z,69.05
2022-12-27T00:54:49.781Z,69.58
2022-12-27T00:57:17.322Z,69.16
2022-12-27T00:59:44.898Z,69.19
2022-12-27T01:02:12.786Z,69.11
2022-12-27T01:04:40.303Z,70.93
2022-12-27T01:07:07.843Z,70.87
2022-12-27T01:09:35.787Z,70.81
2022-12-27T01:12:03.257Z,69.53
2022-12-27T01:14:30.835Z,69.90
2022-12-27T01:16:58.668Z,70.08
2022-12-27T01:19:27.317Z,68.86
2022-12-27T01:21:54.718Z,68.01
2022-12-27T01:24:22.743Z,67.39
2022-12-27T01:26:50.258Z,67.09
2022-12-27T01:29:17.781Z,66.00
2022-12-27T01:31:45.684Z,66.10
2022-12-27T01:34:13.575Z,64.67
2022-12-27T01:36:41.220Z,66.43
2022-12-27T01:39:10.877Z,64.85
2022-12-27T01:42:03.702Z,65.12
2022-12-27T01:44:38.106Z,64.14
2022-12-27T01:47:12.702Z,63.30
2022-12-27T01:49:43.644Z,63.33
2022-12-27T01:52:12.564Z,63.76
2022-12-27T01:54:40.768Z,62.32
2022-12-27T01:57:08.179Z,62.70
2022-12-27T01:59:36.640Z,61.83
2022-12-27T02:02:04.965Z,62.20
2022-12-27T02:04:33.268Z,62.30
2022-12-27T02:07:01.717Z,61.79
2022-12-27T02:09:52.524Z,61.04
2022-12-27T02:12:21.289Z,60.51
2022-12-27T02:14:49.647Z,60.77
2022-12-27T02:17:20.251Z,60.54
2022-12-27T02:20:00.104Z,60.11
2022-12-27T02:23:18.781Z,59.86
2022-12-27T02:26:20.924Z,60.20
2022-12-27T02:29:04.486Z,59.76
2022-12-27T02:31:57.140Z,59.69
2022-12-27T02:34:31.252Z,59.98
2022-12-27T02:37:02.873Z,59.75
2022-12-27T02:39:35.308Z,60.10
2022-12-27T02:42:22.199Z,60.07
2022-12-27T02:45:08.518Z,60.21
2022-12-27T02:47:55.402Z,60.68
2022-12-27T02:50:42.048Z,60.76
2022-12-27T02:53:47.231Z,60.96
2022-12-27T02:56:51.720Z,61.30
2022-12-27T02:59:31.663Z,62.82
2022-12-27T03:02:39.432Z,63.18
2022-12-27T03:06:20.431Z,62.50
2022-12-27T03:09:13.609Z,62.21
2022-12-27T03:12:11.893Z,61.32
2022-12-27T03:15:02.599Z,61.88
2022-12-27T03:17:35.127Z,62.51
2022-12-27T03:20:28.943Z,62.74
2022-12-27T03:23:15.374Z,62.49
2022-12-27T03:25:44.492Z,61.97
2022-12-27T03:28:40.209Z,62.62
2022-12-27T03:31:31.748Z,62.85
2022-12-27T03:34:26.504Z,61.93
2022-12-27T03:37:14.144Z,62.13
2022-12-27T03:40:08.923Z,62.98
2022-12-27T03:43:03.096Z,62.85
2022-12-27T03:46:16.423Z,63.26
2022-12-27T03:49:22.957Z,63.92
2022-12-27T03:51:57.040Z,63.69
2022-12-27T03:54:30.646Z,63.52
2022-12-27T03:57:01.478Z,63.28
2022-12-27T03:59:29.117Z,63.26
2022-12-27T04:01:57.032Z,63.37
2022-12-27T04:04:25.402Z,63.88
2022-12-27T04:06:52.982Z,63.73
2022-12-27T04:09:39.458Z,63.63
2022-12-27T04:12:25.941Z,63.31
2022-12-27T04:15:13.251Z,62.82
2022-12-27T04:17:59.784Z,62.94
2022-12-27T04:20:45.725Z,62.44
2022-12-27T04:23:32.242Z,61.79
2022-12-27T04:26:18.888Z,62.08
2022-12-27T04:29:05.717Z,61.91
2022-12-27T04:31:52.178Z,61.89
2022-12-27T04:34:38.731Z,62.00
2022-12-27T04:37:07.073Z,62.30
2022-12-27T04:39:34.879Z,61.86
2022-12-27T04:42:21.019Z,61.91
2022-12-27T04:45:13.257Z,62.14
2022-12-27T04:48:01.486Z,62.44
2022-12-27T04:50:49.320Z,63.12
2022-12-27T04:53:37.640Z,63.51
2022-12-27T04:56:06.294Z,62.95
2022-12-27T04:58:34.651Z,64.09
2022-12-27T05:01:22.751Z,64.02
2022-12-27T05:03:51.853Z,65.00
2022-12-27T05:06:19.664Z,65.25
2022-12-27T05:09:06.968Z,66.32
2022-12-27T05:11:53.427Z,65.97
2022-12-27T05:14:20.930Z,65.47
2022-12-27T05:16:48.921Z,63.88
2022-12-27T05:19:16.326Z,64.69
2022-12-27T05:22:05.107Z,63.80
2022-12-27T05:24:51.715Z,63.55
2022-12-27T05:27:19.366Z,63.17
2022-12-27T05:29:47.566Z,63.09
2022-12-27T05:32:15.258Z,62.17
2022-12-27T05:34:42.693Z,62.12
2022-12-27T05:37:10.789Z,62.49
2022-12-27T05:39:38.310Z,62.56
2022-12-27T05:42:05.941Z,62.29
2022-12-27T05:44:34.081Z,62.31
2022-12-27T05:47:01.971Z,61.60
2022-12-27T05:49:29.706Z,61.57
2022-12-27T05:51:57.536Z,61.27
2022-12-27T05:54:25.225Z,61.78
2022-12-27T05:56:52.721Z,60.82
2022-12-27T05:59:20.542Z,61.36
2022-12-27T06:01:48.238Z,60.98
2022-12-27T06:04:16.770Z,60.29
2022-12-27T06:06:44.191Z,60.53
2022-12-27T06:09:11.753Z,61.05
2022-12-27T06:11:39.497Z,60.23
2022-12-27T06:14:06.978Z,59.86
2022-12-27T06:16:34.488Z,60.06
2022-12-27T06:19:02.510Z,60.60
2022-12-27T06:21:30.304Z,60.28
2022-12-27T06:23:57.709Z,59.42
2022-12-27T06:26:27.395Z,60.86
2022-12-27T06:28:56.451Z,61.01
2022-12-27T06:31:25.248Z,60.87
2022-12-27T06:33:53.928Z,59.81
2022-12-27T06:36:24.063Z,60.12
2022-12-27T06:38:51.584Z,59.86
2022-12-27T06:41:19.667Z,58.38
2022-12-27T06:43:47.956Z,58.86
2022-12-27T06:46:18.570Z,58.22
2022-12-27T06:48:47.595Z,59.05
2022-12-27T06:51:17.185Z,59.71
2022-12-27T06:53:50.143Z,58.47
2022-12-27T06:56:19.871Z,58.83
2022-12-27T06:58:49.138Z,59.13
2022-12-27T07:01:24.533Z,58.30
2022-12-27T07:03:54.750Z,59.83
2022-12-27T07:06:23.746Z,59.48
2022-12-27T07:08:52.630Z,58.64
2022-12-27T07:11:20.972Z,57.91
2022-12-27T07:13:51.082Z,58.28
2022-12-27T07:16:22.049Z,58.93
2022-12-27T07:18:50.237Z,58.96
2022-12-27T07:21:20.866Z,58.92
2022-12-27T07:23:49.257Z,58.69
2022-12-27T07:26:22.235Z,58.37
2022-12-27T07:28:53.599Z,58.34
2022-12-27T07:31:24.047Z,57.57
2022-12-27T07:33:52.945Z,59.26
2022-12-27T07:36:23.192Z,58.18
2022-12-27T07:38:50.778Z,56.99
2022-12-27T07:41:18.634Z,57.67
2022-12-27T07:43:46.523Z,58.37
2022-12-27T07:46:16.760Z,57.03
2022-12-27T07:48:44.829Z,57.06
2022-12-27T07:51:12.787Z,56.74
2022-12-27T07:53:40.517Z,57.68
2022-12-27T07:56:10.100Z,56.86
2022-12-27T07:58:46.452Z,56.33
2022-12-27T08:01:15.974Z,56.18
2022-12-27T08:03:44.088Z,55.60
2022-12-27T08:06:30.657Z,55.16
2022-12-27T08:08:59.562Z,55.17
2022-12-27T08:11:27.499Z,54.35
2022-12-27T08:13:55.056Z,54.17
2022-12-27T08:16:24.745Z,54.36
2022-12-27T08:18:56.107Z,54.42
2022-12-27T08:21:24.070Z,54.19
2022-12-27T08:23:51.757Z,55.47
2022-12-27T08:26:19.192Z,54.51
2022-12-27T08:28:47.110Z,54.83
2022-12-27T08:31:14.688Z,55.28
2022-12-27T08:33:42.336Z,54.51
2022-12-27T08:39:00.088Z,54.54
2022-12-27T08:41:28.060Z,54.84
2022-12-27T08:43:55.911Z,55.50
2022-12-27T08:46:23.667Z,54.99
2022-12-27T08:48:51.746Z,53.27
2022-12-27T08:51:30.268Z,53.12
2022-12-27T08:53:59.480Z,52.89
2022-12-27T08:56:27.131Z,53.02
2022-12-27T08:58:54.684Z,52.22
2022-12-27T09:01:22.795Z,50.75
2022-12-27T09:03:50.357Z,50.75
2022-12-27T09:06:20.308Z,52.30
2022-12-27T09:08:49.476Z,49.81
2022-12-27T09:11:19.401Z,50.70
2022-12-27T09:13:47.096Z,50.94
2022-12-27T09:16:16.986Z,49.96
2022-12-27T09:18:48.194Z,50.64
2022-12-27T09:21:19.720Z,49.64
2022-12-27T09:23:48.427Z,48.63
2022-12-27T09:26:18.489Z,47.66
2022-12-27T09:28:46.820Z,49.06
2022-12-27T09:31:15.039Z,48.31
2022-12-27T09:33:43.503Z,46.20
2022-12-27T09:36:16.238Z,47.27
2022-12-27T09:38:45.058Z,44.89
2022-12-27T09:42:11.462Z,44.29
2022-12-27T09:44:32.386Z,44.12
2022-12-27T09:47:11.246Z,43.53
2022-12-27T09:49:43.459Z,43.59
2022-12-27T09:52:37.995Z,43.41
2022-12-27T09:55:21.356Z,44.62
2022-12-27T09:57:51.082Z,42.00
2022-12-27T10:00:34.068Z,41.43
2022-12-27T10:03:06.730Z,39.93
2022-12-27T10:05:37.192Z,41.64
2022-12-27T10:08:19.525Z,40.84
2022-12-27T10:11:02.675Z,41.44
2022-12-27T10:13:49.565Z,41.23
2022-12-27T10:16:30.295Z,42.33
2022-12-27T10:19:33.988Z,41.71
2022-12-27T10:22:32.660Z,42.52
2022-12-27T10:25:04.313Z,42.69
2022-12-27T10:27:32.012Z,41.75
2022-12-27T10:30:00.372Z,44.41
2022-12-27T10:32:28.074Z,43.91
2022-12-27T10:35:01.943Z,44.02
2022-12-27T10:37:31.049Z,42.52
2022-12-27T10:40:15.901Z,43.07
2022-12-27T10:42:52.777Z,44.75
2022-12-27T10:45:29.625Z,44.47
2022-12-27T10:47:59.848Z,43.44
2022-12-27T10:50:29.114Z,42.88
2022-12-27T10:52:58.032Z,44.28
2022-12-27T10:55:35.438Z,44.95
2022-12-27T10:58:21.256Z,45.29
2022-12-27T11:00:56.944Z,44.52
2022-12-27T11:03:26.263Z,43.47
2022-12-27T11:06:05.367Z,43.18
2022-12-27T11:08:33.147Z,41.32
2022-12-27T11:11:13.790Z,41.67
2022-12-27T11:13:42.857Z,43.29
2022-12-27T11:16:29.457Z,41.92
2022-12-27T11:18:59.378Z,42.68
2022-12-27T11:21:28.577Z,42.30
2022-12-27T11:24:01.259Z,44.78
2022-12-27T11:26:53.734Z,44.80
2022-12-27T11:29:24.471Z,43.63
2022-12-27T11:31:53.196Z,44.53
2022-12-27T11:34:34.317Z,45.20
2022-12-27T11:37:07.307Z,44.93
2022-12-27T11:39:41.272Z,44.98
2022-12-27T11:42:18.497Z,45.34
2022-12-27T11:44:53.687Z,45.54
2022-12-27T11:48:01.666Z,46.75
2022-12-27T11:51:06.132Z,43.96
2022-12-27T11:53:54.198Z,42.17
2022-12-27T11:56:35.981Z,42.42
2022-12-27T11:59:25.583Z,42.34
2022-12-27T12:02:18.058Z,42.80
2022-12-27T12:05:27.511Z,42.44
2022-12-27T12:08:09.847Z,43.29
2022-12-27T12:10:53.558Z,43.91
2022-12-27T12:13:55.073Z,43.36
2022-12-27T12:16:44.710Z,41.29
2022-12-27T12:19:21.363Z,42.97
2022-12-27T12:21:49.451Z,41.44
2022-12-27T12:24:43.534Z,41.53
2022-12-27T12:27:33.310Z,40.76
2022-12-27T12:30:04.091Z,42.12
2022-12-27T12:32:33.722Z,42.38
2022-12-27T12:35:19.786Z,40.74
2022-12-27T12:38:13.210Z,41.27
2022-12-27T12:41:16.930Z,41.29
2022-12-27T12:44:16.027Z,41.23
2022-12-27T12:47:01.147Z,41.54
2022-12-27T12:49:50.679Z,41.77
2022-12-27T12:52:37.055Z,41.00
2022-12-27T12:55:30.938Z,40.70
2022-12-27T12:58:19.403Z,42.11
2022-12-27T13:01:45.160Z,41.53
2022-12-27T13:04:51.698Z,41.82
2022-12-27T13:07:36.241Z,41.27
2022-12-27T13:10:10.070Z,41.00
2022-12-27T13:13:00.115Z,41.15
2022-12-27T13:15:53.314Z,41.82
2022-12-27T13:18:57.197Z,41.62
2022-12-27T13:21:49.257Z,41.03
2022-12-27T13:24:23.666Z,41.22
2022-12-27T13:27:07.248Z,42.73
2022-12-27T13:30:13.080Z,41.10
2022-12-27T13:32:50.509Z,41.44
2022-12-27T13:35:44.374Z,41.37
2022-12-27T13:38:22.718Z,41.67
2022-12-27T13:41:09.363Z,41.92
2022-12-27T13:44:01.576Z,42.84
2022-12-27T13:47:04.182Z,40.84
2022-12-27T13:49:50.472Z,43.16
2022-12-27T13:52:33.683Z,42.17
2022-12-27T13:55:28.626Z,41.34
2022-12-27T13:58:08.903Z,41.72
2022-12-27T14:01:04.045Z,43.27
2022-12-27T14:03:53.744Z,41.61
2022-12-27T14:06:42.649Z,42.90
2022-12-27T14:09:30.791Z,41.51
2022-12-27T14:12:22.810Z,43.09
2022-12-27T14:14:51.453Z,42.70
2022-12-27T14:17:30.979Z,43.48
2022-12-27T14:20:28.827Z,43.16
2022-12-27T14:23:21.466Z,42.16
2022-12-27T14:25:59.329Z,42.49
2022-12-27T14:28:48.675Z,43.08
2022-12-27T14:31:47.019Z,44.08
2022-12-27T14:34:46.842Z,42.46
2022-12-27T14:37:28.391Z,43.34
2022-12-27T14:40:40.774Z,43.88
2022-12-27T14:43:48.213Z,40.98
2022-12-27T14:46:42.032Z,43.23
2022-12-27T14:49:10.174Z,43.21
2022-12-27T14:52:02.440Z,43.07
2022-12-27T14:55:02.479Z,42.85
2022-12-27T14:57:51.937Z,42.02
2022-12-27T15:00:21.879Z,43.54
2022-12-27T15:02:57.307Z,41.86
2022-12-27T15:05:45.451Z,41.70
2022-12-27T15:08:31.754Z,42.03
2022-12-27T15:11:06.815Z,42.21
2022-12-27T15:14:09.852Z,42.49
2022-12-27T15:17:07.244Z,42.18
2022-12-27T15:19:56.807Z,43.77
2022-12-27T15:22:39.835Z,43.69
2022-12-27T15:25:30.319Z,45.06
2022-12-27T15:28:15.823Z,45.34
2022-12-27T15:30:53.134Z,44.90
2022-12-27T15:33:57.734Z,44.66
2022-12-27T15:36:44.028Z,45.36
2022-12-27T15:39:33.861Z,45.16
2022-12-27T15:42:44.815Z,46.80
2022-12-27T15:45:30.406Z,47.12
2022-12-27T15:48:25.828Z,44.82
2022-12-27T15:51:07.529Z,45.73
2022-12-27T15:53:38.109Z,44.40
2022-12-27T15:56:46.985Z,45.52
2022-12-27T15:59:36.845Z,45.31
2022-12-27T16:02:16.976Z,45.47
2022-12-27T16:04:53.144Z,45.17
2022-12-27T16:07:47.035Z,45.93
2022-12-27T16:10:35.625Z,45.97
2022-12-27T16:13:09.203Z,46.60
2022-12-27T16:15:43.591Z,47.27
2022-12-27T16:18:33.638Z,47.23
2022-12-27T16:21:02.045Z,49.53
2022-12-27T16:23:39.446Z,48.80
2022-12-27T16:26:17.310Z,49.55
2022-12-27T16:29:14.760Z,49.16
2022-12-27T16:31:48.230Z,49.79
2022-12-27T16:34:28.852Z,50.35
2022-12-27T16:37:00.897Z,50.35
2022-12-27T16:39:41.614Z,49.29
2022-12-27T16:42:09.698Z,50.23
2022-12-27T16:45:24.866Z,50.56
2022-12-27T16:48:13.563Z,50.56
2022-12-27T16:51:08.406Z,52.25
2022-12-27T16:53:56.147Z,50.62
2022-12-27T16:56:26.077Z,50.29
2022-12-27T16:58:54.011Z,49.42
2022-12-27T17:01:50.861Z,48.92
2022-12-27T17:04:50.131Z,49.02
2022-12-27T17:07:37.356Z,47.84
2022-12-27T17:10:42.429Z,47.87
2022-12-27T17:13:19.423Z,47.76
2022-12-27T17:15:58.505Z,47.58
2022-12-27T17:18:30.050Z,47.34
2022-12-27T17:21:12.924Z,48.48
2022-12-27T17:23:42.696Z,47.71
2022-12-27T17:26:33.449Z,49.11
2022-12-27T17:29:12.229Z,49.13
2022-12-27T17:31:46.058Z,49.41
2022-12-27T17:34:35.848Z,49.07
2022-12-27T17:37:19.991Z,49.10
2022-12-27T17:39:54.624Z,49.17
2022-12-27T17:42:54.773Z,49.37
2022-12-27T17:45:57.988Z,50.52
2022-12-27T17:48:28.746Z,50.47
2022-12-27T17:51:00.683Z,50.08
2022-12-27T17:53:47.285Z,49.96
2022-12-27T17:56:36.837Z,49.66
2022-12-27T17:59:05.966Z,49.97
2022-12-27T18:01:36.172Z,50.04
2022-12-27T18:04:05.282Z,50.47
2022-12-27T18:06:35.594Z,50.67
2022-12-27T18:09:04.432Z,50.41
2022-12-27T18:11:33.380Z,50.69
2022-12-27T18:14:01.289Z,51.05
2022-12-27T18:16:38.046Z,51.44
2022-12-27T18:19:06.207Z,51.91
2022-12-27T18:21:33.887Z,52.35
2022-12-27T18:24:01.518Z,52.42
2022-12-27T18:26:39.824Z,52.08
2022-12-27T18:29:11.202Z,51.46
2022-12-27T18:31:49.874Z,52.58
2022-12-27T18:34:28.695Z,52.17
2022-12-27T18:37:16.214Z,52.67
2022-12-27T18:40:00.587Z,52.42
2022-12-27T18:42:34.786Z,53.20
2022-12-27T18:45:04.899Z,53.89
2022-12-27T18:47:38.204Z,53.43
2022-12-27T18:50:07.040Z,52.87
2022-12-27T18:52:39.741Z,53.48
2022-12-27T18:55:18.024Z,53.90
2022-12-27T18:57:46.553Z,53.87
2022-12-27T19:00:14.329Z,54.06
2022-12-27T19:02:43.118Z,54.43
2022-12-27T19:05:20.240Z,54.52
2022-12-27T19:07:59.825Z,55.02
2022-12-27T19:10:29.560Z,54.54
2022-12-27T19:12:57.584Z,54.22
2022-12-27T19:15:33.555Z,53.91
2022-12-27T19:18:04.895Z,53.64
2022-12-27T19:20:36.881Z,53.56
2022-12-27T19:23:05.436Z,54.39
2022-12-27T19:25:34.939Z,53.75
2022-12-27T19:28:04.617Z,54.09
2022-12-27T19:30:43.656Z,54.31
2022-12-27T19:33:24.618Z,53.21
2022-12-27T19:35:53.012Z,54.22
2022-12-27T19:38:26.314Z,54.65
2022-12-27T19:41:03.095Z,54.91
2022-12-27T19:43:36.486Z,55.81
2022-12-27T19:46:04.537Z,55.38
2022-12-27T19:48:32.267Z,55.68
2022-12-27T19:51:00.035Z,54.19
2022-12-27T19:53:33.834Z,54.01
2022-12-27T19:56:03.303Z,54.78
2022-12-27T19:58:31.782Z,54.63
2022-12-27T20:01:00.558Z,54.25
2022-12-27T20:03:28.590Z,54.98
2022-12-27T20:06:14.034Z,55.81
2022-12-27T20:08:49.179Z,55.98
2022-12-27T20:11:19.949Z,55.59
2022-12-27T20:13:48.355Z,55.44
2022-12-27T20:16:18.564Z,55.28
2022-12-27T20:18:46.933Z,55.58
2022-12-27T20:21:19.788Z,55.62
2022-12-27T20:23:48.252Z,55.19
2022-12-27T20:26:22.403Z,54.88
2022-12-27T20:28:50.495Z,54.95
2022-12-27T20:31:20.624Z,55.41
2022-12-27T20:33:52.771Z,55.52
2022-12-27T20:36:20.803Z,55.46
2022-12-27T20:38:48.530Z,55.41
2022-12-27T20:41:19.283Z,55.87
2022-12-27T20:43:47.191Z,54.10
2022-12-27T20:46:17.122Z,54.01
2022-12-27T20:48:46.227Z,54.69
2022-12-27T20:51:19.099Z,55.94
2022-12-27T20:53:49.172Z,56.36
2022-12-27T20:56:17.560Z,56.22
2022-12-27T20:58:45.575Z,56.62
2022-12-27T21:01:16.220Z,56.97
2022-12-27T21:03:44.610Z,55.93
2022-12-27T21:06:15.093Z,56.63
2022-12-27T21:08:47.863Z,57.38
2022-12-27T21:11:20.276Z,57.23
2022-12-27T21:13:49.000Z,57.27
2022-12-27T21:16:19.880Z,56.98
2022-12-27T21:18:48.787Z,57.29
2022-12-27T21:21:20.982Z,56.99
2022-12-27T21:23:49.647Z,56.87
2022-12-27T21:26:23.362Z,56.81
2022-12-27T21:28:51.683Z,56.22
2022-12-27T21:31:19.464Z,56.38
2022-12-27T21:33:47.528Z,57.13
2022-12-27T21:36:17.696Z,57.70
2022-12-27T21:38:45.488Z,58.30
2022-12-27T21:41:28.863Z,58.03
2022-12-27T21:43:57.029Z,57.25
2022-12-27T21:46:27.570Z,57.04
2022-12-27T21:49:00.811Z,57.04
2022-12-27T21:51:30.408Z,57.04
2022-12-27T21:53:58.127Z,57.52
2022-12-27T21:56:26.116Z,57.57
2022-12-27T21:58:57.291Z,58.12
2022-12-27T22:01:27.134Z,57.53
2022-12-27T22:03:56.062Z,57.38
2022-12-27T22:06:25.762Z,58.21
2022-12-27T22:08:59.903Z,58.64
2022-12-27T22:11:29.090Z,56.99
2022-12-27T22:13:57.069Z,58.03
2022-12-27T22:16:27.307Z,58.03
2022-12-27T22:18:56.229Z,58.59
2022-12-27T22:21:29.324Z,58.78
2022-12-27T22:23:58.906Z,58.24
2022-12-27T22:26:28.752Z,59.25
2022-12-27T22:28:56.819Z,58.75
2022-12-27T22:31:27.844Z,58.89
2022-12-27T22:33:55.502Z,58.73
2022-12-27T22:36:24.882Z,58.57
2022-12-27T22:38:55.194Z,57.35
2022-12-27T22:41:31.855Z,58.82
2022-12-27T22:44:01.334Z,58.57
2022-12-27T22:46:51.190Z,59.23
2022-12-27T22:49:17.943Z,58.80
2022-12-27T22:51:46.056Z,57.85
2022-12-27T22:54:13.613Z,56.69
2022-12-27T22:56:42.483Z,57.84
2022-12-27T22:59:12.743Z,58.70
2022-12-27T23:01:41.371Z,58.57
2022-12-27T23:04:11.631Z,58.61
2022-12-27T23:06:40.626Z,58.01
2022-12-27T23:09:08.895Z,58.32
2022-12-27T23:11:38.453Z,58.57
2022-12-27T23:14:11.019Z,58.54
2022-12-27T23:16:46.338Z,58.02
2022-12-27T23:19:17.014Z,58.88
2022-12-27T23:21:44.659Z,58.41
2022-12-27T23:24:12.297Z,58.14
2022-12-27T23:26:41.657Z,58.06
2022-12-27T23:29:11.623Z,57.78
2022-12-27T23:31:54.508Z,58.01
2022-12-27T23:34:28.777Z,57.81
2022-12-27T23:37:00.352Z,58.10
2022-12-27T23:39:28.870Z,58.00
2022-12-27T23:41:56.756Z,58.10
2022-12-27T23:44:33.372Z,57.97
2022-12-27T23:47:05.937Z,58.54
2022-12-27T23:49:34.415Z,57.51
2022-12-27T23:52:02.910Z,56.79
2022-12-27T23:54:30.654Z,58.00
2022-12-27T23:56:58.655Z,58.92
2022-12-27T23:59:46.446Z,58.48
